sensor_id;sensor_type;location;lat;lon;timestamp;pressure;altitude;pressure_sealevel;temperature;humidity
55761;BME280;41679;51.440;-2.012;2022-08-27T00:00:08;100860.81;;;14.63;100.00
55761;BME280;41679;51.440;-2.012;2022-08-27T00:02:40;100863.56;;;14.56;100.00
55761;BME280;41679;51.440;-2.012;2022-08-27T00:05:06;100868.41;;;14.54;100.00
55761;BME280;41679;51.440;-2.012;2022-08-27T00:07:32;100866.09;;;14.51;100.00
55761;BME280;41679;51.440;-2.012;2022-08-27T00:09:57;100867.59;;;14.47;100.00
55761;BME280;41679;51.440;-2.012;2022-08-27T00:12:23;100867.19;;;14.43;100.00
55761;BME280;41679;51.440;-2.012;2022-08-27T00:14:49;100863.44;;;14.38;100.00
55761;BME280;41679;51.440;-2.012;2022-08-27T00:17:14;100856.16;;;14.32;100.00
55761;BME280;41679;51.440;-2.012;2022-08-27T00:19:40;100857.44;;;14.29;100.00
55761;BME280;41679;51.440;-2.012;2022-08-27T00:22:07;100860.38;;;14.28;100.00
55761;BME280;41679;51.440;-2.012;2022-08-27T00:24:34;100854.72;;;14.22;100.00
55761;BME280;41679;51.440;-2.012;2022-08-27T00:26:59;100860.63;;;14.19;100.00
55761;BME280;41679;51.440;-2.012;2022-08-27T00:29:25;100848.69;;;14.14;100.00
55761;BME280;41679;51.440;-2.012;2022-08-27T00:31:52;100852.69;;;14.11;100.00
55761;BME280;41679;51.440;-2.012;2022-08-27T00:34:18;100849.13;;;14.11;100.00
55761;BME280;41679;51.440;-2.012;2022-08-27T00:36:44;100849.78;;;14.06;100.00
55761;BME280;41679;51.440;-2.012;2022-08-27T00:39:10;100846.44;;;14.04;100.00
55761;BME280;41679;51.440;-2.012;2022-08-27T00:41:38;100849.56;;;14.08;100.00
55761;BME280;41679;51.440;-2.012;2022-08-27T00:44:07;100847.25;;;14.05;100.00
55761;BME280;41679;51.440;-2.012;2022-08-27T00:46:42;100846.03;;;14.00;100.00
55761;BME280;41679;51.440;-2.012;2022-08-27T00:52:52;100837.94;;;13.87;100.00
55761;BME280;41679;51.440;-2.012;2022-08-27T00:55:26;100842.75;;;13.78;100.00
55761;BME280;41679;51.440;-2.012;2022-08-27T00:58:18;100842.56;;;13.73;100.00
55761;BME280;41679;51.440;-2.012;2022-08-27T01:00:46;100832.94;;;13.71;100.00
55761;BME280;41679;51.440;-2.012;2022-08-27T01:03:12;100835.06;;;13.69;100.00
55761;BME280;41679;51.440;-2.012;2022-08-27T01:05:40;100826.69;;;13.64;100.00
55761;BME280;41679;51.440;-2.012;2022-08-27T01:08:14;100835.50;;;13.59;100.00
55761;BME280;41679;51.440;-2.012;2022-08-27T01:10:41;100830.91;;;13.53;100.00
55761;BME280;41679;51.440;-2.012;2022-08-27T01:13:13;100829.47;;;13.50;100.00
55761;BME280;41679;51.440;-2.012;2022-08-27T01:15:40;100831.75;;;13.47;100.00
55761;BME280;41679;51.440;-2.012;2022-08-27T01:18:06;100837.03;;;13.42;100.00
55761;BME280;41679;51.440;-2.012;2022-08-27T01:20:43;100839.34;;;13.38;100.00
55761;BME280;41679;51.440;-2.012;2022-08-27T01:25:58;100840.41;;;13.30;100.00
55761;BME280;41679;51.440;-2.012;2022-08-27T01:28:24;100830.34;;;13.31;100.00
55761;BME280;41679;51.440;-2.012;2022-08-27T01:30:51;100827.00;;;13.29;100.00
55761;BME280;41679;51.440;-2.012;2022-08-27T01:33:19;100824.66;;;13.26;100.00
55761;BME280;41679;51.440;-2.012;2022-08-27T01:35:48;100831.81;;;13.20;100.00
55761;BME280;41679;51.440;-2.012;2022-08-27T01:38:15;100828.03;;;13.14;100.00
55761;BME280;41679;51.440;-2.012;2022-08-27T01:40:42;100830.56;;;13.09;100.00
55761;BME280;41679;51.440;-2.012;2022-08-27T01:43:11;100831.00;;;13.06;100.00
55761;BME280;41679;51.440;-2.012;2022-08-27T01:45:44;100832.03;;;13.05;100.00
55761;BME280;41679;51.440;-2.012;2022-08-27T01:48:19;100833.91;;;12.98;100.00
55761;BME280;41679;51.440;-2.012;2022-08-27T01:50:51;100832.03;;;12.92;100.00
55761;BME280;41679;51.440;-2.012;2022-08-27T01:53:39;100832.66;;;12.87;100.00
55761;BME280;41679;51.440;-2.012;2022-08-27T01:56:08;100833.50;;;12.81;100.00
55761;BME280;41679;51.440;-2.012;2022-08-27T01:58:36;100828.06;;;12.75;100.00
55761;BME280;41679;51.440;-2.012;2022-08-27T02:01:09;100831.41;;;12.77;100.00
55761;BME280;41679;51.440;-2.012;2022-08-27T02:03:36;100830.97;;;12.80;100.00
55761;BME280;41679;51.440;-2.012;2022-08-27T02:06:06;100840.84;;;12.81;100.00
55761;BME280;41679;51.440;-2.012;2022-08-27T02:08:32;100832.69;;;12.81;100.00
55761;BME280;41679;51.440;-2.012;2022-08-27T02:10:58;100838.13;;;12.81;100.00
55761;BME280;41679;51.440;-2.012;2022-08-27T02:13:25;100834.75;;;12.79;100.00
55761;BME280;41679;51.440;-2.012;2022-08-27T02:15:53;100825.53;;;12.80;100.00
55761;BME280;41679;51.440;-2.012;2022-08-27T02:18:22;100828.91;;;12.82;100.00
55761;BME280;41679;51.440;-2.012;2022-08-27T02:20:47;100824.09;;;12.90;100.00
55761;BME280;41679;51.440;-2.012;2022-08-27T02:23:14;100820.94;;;13.00;100.00
55761;BME280;41679;51.440;-2.012;2022-08-27T02:25:40;100830.56;;;13.09;100.00
55761;BME280;41679;51.440;-2.012;2022-08-27T02:28:06;100823.44;;;13.15;100.00
55761;BME280;41679;51.440;-2.012;2022-08-27T02:30:35;100830.34;;;13.18;100.00
55761;BME280;41679;51.440;-2.012;2022-08-27T02:33:01;100831.41;;;13.10;100.00
55761;BME280;41679;51.440;-2.012;2022-08-27T02:35:31;100829.94;;;13.01;100.00
55761;BME280;41679;51.440;-2.012;2022-08-27T02:37:57;100819.69;;;12.89;100.00
55761;BME280;41679;51.440;-2.012;2022-08-27T02:40:26;100819.91;;;12.81;100.00
55761;BME280;41679;51.440;-2.012;2022-08-27T02:42:52;100834.56;;;12.74;100.00
55761;BME280;41679;51.440;-2.012;2022-08-27T02:45:19;100821.59;;;12.62;100.00
55761;BME280;41679;51.440;-2.012;2022-08-27T02:47:46;100821.56;;;12.56;100.00
55761;BME280;41679;51.440;-2.012;2022-08-27T02:50:13;100813.63;;;12.54;100.00
55761;BME280;41679;51.440;-2.012;2022-08-27T02:52:39;100814.44;;;12.48;100.00
55761;BME280;41679;51.440;-2.012;2022-08-27T02:55:05;100807.53;;;12.45;100.00
55761;BME280;41679;51.440;-2.012;2022-08-27T02:57:32;100812.78;;;12.47;100.00
55761;BME280;41679;51.440;-2.012;2022-08-27T02:59:58;100818.00;;;12.48;100.00
55761;BME280;41679;51.440;-2.012;2022-08-27T03:02:24;100811.09;;;12.46;100.00
55761;BME280;41679;51.440;-2.012;2022-08-27T03:04:49;100805.47;;;12.41;100.00
55761;BME280;41679;51.440;-2.012;2022-08-27T03:07:15;100815.25;;;12.35;100.00
55761;BME280;41679;51.440;-2.012;2022-08-27T03:09:41;100814.44;;;12.35;100.00
55761;BME280;41679;51.440;-2.012;2022-08-27T03:12:07;100811.28;;;12.31;100.00
55761;BME280;41679;51.440;-2.012;2022-08-27T03:14:33;100809.00;;;12.28;100.00
55761;BME280;41679;51.440;-2.012;2022-08-27T03:16:59;100803.94;;;12.25;100.00
55761;BME280;41679;51.440;-2.012;2022-08-27T03:19:44;100803.34;;;12.23;100.00
55761;BME280;41679;51.440;-2.012;2022-08-27T03:22:16;100804.78;;;12.19;100.00
55761;BME280;41679;51.440;-2.012;2022-08-27T03:24:45;100799.53;;;12.17;100.00
55761;BME280;41679;51.440;-2.012;2022-08-27T03:27:11;100803.13;;;12.18;100.00
55761;BME280;41679;51.440;-2.012;2022-08-27T03:29:39;100799.16;;;12.20;100.00
55761;BME280;41679;51.440;-2.012;2022-08-27T03:32:05;100803.72;;;12.20;100.00
55761;BME280;41679;51.440;-2.012;2022-08-27T03:34:32;100798.06;;;12.15;100.00
55761;BME280;41679;51.440;-2.012;2022-08-27T03:36:58;100797.88;;;12.10;100.00
55761;BME280;41679;51.440;-2.012;2022-08-27T03:39:29;100793.88;;;12.06;100.00
55761;BME280;41679;51.440;-2.012;2022-08-27T03:41:55;100800.56;;;12.03;100.00
55761;BME280;41679;51.440;-2.012;2022-08-27T03:44:22;100796.38;;;12.00;100.00
55761;BME280;41679;51.440;-2.012;2022-08-27T03:46:49;100800.34;;;11.98;100.00
55761;BME280;41679;51.440;-2.012;2022-08-27T03:49:21;100801.59;;;11.95;100.00
55761;BME280;41679;51.440;-2.012;2022-08-27T03:51:48;100794.50;;;11.94;100.00
55761;BME280;41679;51.440;-2.012;2022-08-27T03:54:14;100797.41;;;11.93;100.00
55761;BME280;41679;51.440;-2.012;2022-08-27T03:56:40;100801.78;;;11.94;100.00
55761;BME280;41679;51.440;-2.012;2022-08-27T03:59:08;100799.47;;;11.91;100.00
55761;BME280;41679;51.440;-2.012;2022-08-27T04:01:37;100809.94;;;11.87;100.00
55761;BME280;41679;51.440;-2.012;2022-08-27T04:04:03;100804.88;;;11.84;100.00
55761;BME280;41679;51.440;-2.012;2022-08-27T04:06:29;100805.66;;;11.78;100.00
55761;BME280;41679;51.440;-2.012;2022-08-27T04:08:58;100814.44;;;11.73;100.00
55761;BME280;41679;51.440;-2.012;2022-08-27T04:11:24;100811.88;;;11.65;100.00
55761;BME280;41679;51.440;-2.012;2022-08-27T04:13:50;100801.84;;;11.59;100.00
55761;BME280;41679;51.440;-2.012;2022-08-27T04:16:16;100807.69;;;11.56;100.00
55761;BME280;41679;51.440;-2.012;2022-08-27T04:18:41;100804.53;;;11.52;100.00
55761;BME280;41679;51.440;-2.012;2022-08-27T04:21:12;100804.72;;;11.51;100.00
55761;BME280;41679;51.440;-2.012;2022-08-27T04:23:39;100801.38;;;11.49;100.00
55761;BME280;41679;51.440;-2.012;2022-08-27T04:26:09;100803.22;;;11.42;100.00
55761;BME280;41679;51.440;-2.012;2022-08-27T04:28:35;100806.56;;;11.37;100.00
55761;BME280;41679;51.440;-2.012;2022-08-27T04:31:02;100805.91;;;11.35;100.00
55761;BME280;41679;51.440;-2.012;2022-08-27T04:33:29;100807.78;;;11.34;100.00
55761;BME280;41679;51.440;-2.012;2022-08-27T04:36:00;100803.38;;;11.33;100.00
55761;BME280;41679;51.440;-2.012;2022-08-27T04:38:27;100805.25;;;11.33;100.00
55761;BME280;41679;51.440;-2.012;2022-08-27T04:40:53;100793.34;;;11.34;100.00
55761;BME280;41679;51.440;-2.012;2022-08-27T04:43:38;100798.34;;;11.30;100.00
55761;BME280;41679;51.440;-2.012;2022-08-27T04:46:04;100793.53;;;11.26;100.00
55761;BME280;41679;51.440;-2.012;2022-08-27T04:48:30;100793.75;;;11.24;100.00
55761;BME280;41679;51.440;-2.012;2022-08-27T04:50:57;100792.91;;;11.24;100.00
55761;BME280;41679;51.440;-2.012;2022-08-27T04:53:22;100786.84;;;11.22;100.00
55761;BME280;41679;51.440;-2.012;2022-08-27T04:55:53;100797.22;;;11.18;100.00
55761;BME280;41679;51.440;-2.012;2022-08-27T04:58:21;100804.13;;;11.21;100.00
55761;BME280;41679;51.440;-2.012;2022-08-27T05:00:49;100806.66;;;11.22;100.00
55761;BME280;41679;51.440;-2.012;2022-08-27T05:03:16;100804.53;;;11.17;100.00
55761;BME280;41679;51.440;-2.012;2022-08-27T05:05:42;100809.31;;;11.15;100.00
55761;BME280;41679;51.440;-2.012;2022-08-27T05:08:09;100811.59;;;11.12;100.00
55761;BME280;41679;51.440;-2.012;2022-08-27T05:10:48;100802.81;;;11.10;100.00
55761;BME280;41679;51.440;-2.012;2022-08-27T05:13:17;100812.66;;;11.11;100.00
55761;BME280;41679;51.440;-2.012;2022-08-27T05:15:44;100813.03;;;11.08;100.00
55761;BME280;41679;51.440;-2.012;2022-08-27T05:18:10;100813.91;;;11.08;100.00
55761;BME280;41679;51.440;-2.012;2022-08-27T05:20:45;100814.25;;;11.05;100.00
55761;BME280;41679;51.440;-2.012;2022-08-27T05:23:12;100812.19;;;11.07;100.00
55761;BME280;41679;51.440;-2.012;2022-08-27T05:25:48;100813.03;;;11.08;100.00
55761;BME280;41679;51.440;-2.012;2022-08-27T05:28:21;100812.44;;;11.12;100.00
55761;BME280;41679;51.440;-2.012;2022-08-27T05:30:54;100816.63;;;11.15;100.00
55761;BME280;41679;51.440;-2.012;2022-08-27T05:33:23;100822.53;;;11.19;100.00
55761;BME280;41679;51.440;-2.012;2022-08-27T05:35:54;100827.13;;;11.25;100.00
55761;BME280;41679;51.440;-2.012;2022-08-27T05:38:22;100826.75;;;11.28;100.00
55761;BME280;41679;51.440;-2.012;2022-08-27T05:40:50;100833.06;;;11.35;100.00
55761;BME280;41679;51.440;-2.012;2022-08-27T05:43:17;100833.94;;;11.42;100.00
55761;BME280;41679;51.440;-2.012;2022-08-27T05:45:47;100830.59;;;11.47;100.00
55761;BME280;41679;51.440;-2.012;2022-08-27T05:48:14;100828.34;;;11.50;100.00
55761;BME280;41679;51.440;-2.012;2022-08-27T05:50:41;100834.84;;;11.56;100.00
55761;BME280;41679;51.440;-2.012;2022-08-27T05:53:09;100837.97;;;11.59;100.00
55761;BME280;41679;51.440;-2.012;2022-08-27T05:55:37;100849.13;;;11.71;100.00
55761;BME280;41679;51.440;-2.012;2022-08-27T05:58:07;100843.09;;;11.76;100.00
55761;BME280;41679;51.440;-2.012;2022-08-27T06:00:36;100853.97;;;11.82;100.00
55761;BME280;41679;51.440;-2.012;2022-08-27T06:03:21;100852.16;;;11.90;100.00
55761;BME280;41679;51.440;-2.012;2022-08-27T06:05:46;100851.78;;;11.99;100.00
55761;BME280;41679;51.440;-2.012;2022-08-27T06:08:12;100853.25;;;12.09;100.00
55761;BME280;41679;51.440;-2.012;2022-08-27T06:10:39;100850.38;;;12.23;100.00
55761;BME280;41679;51.440;-2.012;2022-08-27T06:13:06;100853.16;;;12.50;100.00
55761;BME280;41679;51.440;-2.012;2022-08-27T06:15:31;100856.13;;;12.88;100.00
55761;BME280;41679;51.440;-2.012;2022-08-27T06:17:57;100851.31;;;13.30;100.00
55761;BME280;41679;51.440;-2.012;2022-08-27T06:20:23;100857.91;;;13.68;100.00
55761;BME280;41679;51.440;-2.012;2022-08-27T06:22:49;100861.19;;;13.90;100.00
55761;BME280;41679;51.440;-2.012;2022-08-27T06:25:15;100873.00;;;14.15;100.00
55761;BME280;41679;51.440;-2.012;2022-08-27T06:27:40;100874.53;;;14.43;100.00
55761;BME280;41679;51.440;-2.012;2022-08-27T06:30:06;100887.84;;;14.71;100.00
55761;BME280;41679;51.440;-2.012;2022-08-27T06:32:32;100888.56;;;14.85;100.00
55761;BME280;41679;51.440;-2.012;2022-08-27T06:34:58;100895.38;;;15.01;100.00
55761;BME280;41679;51.440;-2.012;2022-08-27T06:37:23;100901.34;;;15.16;100.00
55761;BME280;41679;51.440;-2.012;2022-08-27T06:39:49;100903.63;;;15.19;100.00
55761;BME280;41679;51.440;-2.012;2022-08-27T06:42:16;100904.84;;;15.23;100.00
55761;BME280;41679;51.440;-2.012;2022-08-27T06:44:47;100914.34;;;15.21;100.00
55761;BME280;41679;51.440;-2.012;2022-08-27T06:47:12;100912.50;;;15.15;100.00
55761;BME280;41679;51.440;-2.012;2022-08-27T06:49:39;100912.16;;;15.04;100.00
55761;BME280;41679;51.440;-2.012;2022-08-27T06:52:05;100908.03;;;14.95;100.00
55761;BME280;41679;51.440;-2.012;2022-08-27T06:54:30;100915.84;;;14.92;100.00
55761;BME280;41679;51.440;-2.012;2022-08-27T06:56:59;100901.31;;;14.91;100.00
55761;BME280;41679;51.440;-2.012;2022-08-27T06:59:25;100904.84;;;14.98;100.00
55761;BME280;41679;51.440;-2.012;2022-08-27T07:01:50;100905.81;;;15.10;100.00
55761;BME280;41679;51.440;-2.012;2022-08-27T07:04:26;100899.63;;;15.40;100.00
55761;BME280;41679;51.440;-2.012;2022-08-27T07:06:55;100901.31;;;15.85;100.00
55761;BME280;41679;51.440;-2.012;2022-08-27T07:09:23;100903.34;;;16.08;100.00
55761;BME280;41679;51.440;-2.012;2022-08-27T07:11:52;100906.22;;;16.13;100.00
55761;BME280;41679;51.440;-2.012;2022-08-27T07:14:17;100915.13;;;15.90;100.00
55761;BME280;41679;51.440;-2.012;2022-08-27T07:16:49;100914.66;;;15.74;100.00
55761;BME280;41679;51.440;-2.012;2022-08-27T07:19:16;100919.75;;;15.46;100.00
55761;BME280;41679;51.440;-2.012;2022-08-27T07:21:45;100916.41;;;15.25;100.00
55761;BME280;41679;51.440;-2.012;2022-08-27T07:24:10;100908.91;;;15.14;100.00
55761;BME280;41679;51.440;-2.012;2022-08-27T07:26:38;100908.97;;;15.32;100.00
55761;BME280;41679;51.440;-2.012;2022-08-27T07:29:08;100904.53;;;15.13;100.00
55761;BME280;41679;51.440;-2.012;2022-08-27T07:31:34;100911.75;;;15.01;100.00
55761;BME280;41679;51.440;-2.012;2022-08-27T07:34:04;100905.53;;;15.19;100.00
55761;BME280;41679;51.440;-2.012;2022-08-27T07:36:33;100907.00;;;15.40;100.00
55761;BME280;41679;51.440;-2.012;2022-08-27T07:39:03;100920.53;;;15.53;100.00
55761;BME280;41679;51.440;-2.012;2022-08-27T07:41:33;100916.34;;;15.50;100.00
55761;BME280;41679;51.440;-2.012;2022-08-27T07:44:18;100915.19;;;15.40;100.00
55761;BME280;41679;51.440;-2.012;2022-08-27T07:46:51;100920.16;;;15.49;100.00
55761;BME280;41679;51.440;-2.012;2022-08-27T07:49:21;100923.94;;;15.48;100.00
55761;BME280;41679;51.440;-2.012;2022-08-27T07:51:48;100922.66;;;15.51;100.00
55761;BME280;41679;51.440;-2.012;2022-08-27T07:54:15;100928.59;;;15.66;100.00
55761;BME280;41679;51.440;-2.012;2022-08-27T07:56:41;100932.97;;;15.74;100.00
55761;BME280;41679;51.440;-2.012;2022-08-27T07:59:06;100929.34;;;15.80;100.00
55761;BME280;41679;51.440;-2.012;2022-08-27T08:01:33;100935.97;;;15.91;100.00
55761;BME280;41679;51.440;-2.012;2022-08-27T08:03:58;100935.66;;;15.99;100.00
55761;BME280;41679;51.440;-2.012;2022-08-27T08:06:24;100939.22;;;16.00;100.00
55761;BME280;41679;51.440;-2.012;2022-08-27T08:08:50;100946.81;;;15.97;100.00
55761;BME280;41679;51.440;-2.012;2022-08-27T08:11:18;100944.94;;;15.98;100.00
55761;BME280;41679;51.440;-2.012;2022-08-27T08:13:47;100948.81;;;16.09;100.00
55761;BME280;41679;51.440;-2.012;2022-08-27T08:16:16;100949.53;;;15.97;100.00
55761;BME280;41679;51.440;-2.012;2022-08-27T08:18:42;100948.50;;;15.99;100.00
55761;BME280;41679;51.440;-2.012;2022-08-27T08:21:11;100947.66;;;16.16;100.00
55761;BME280;41679;51.440;-2.012;2022-08-27T08:23:40;100947.94;;;16.45;100.00
55761;BME280;41679;51.440;-2.012;2022-08-27T08:26:07;100942.34;;;16.52;100.00
55761;BME280;41679;51.440;-2.012;2022-08-27T08:28:33;100945.91;;;16.52;100.00
55761;BME280;41679;51.440;-2.012;2022-08-27T08:30:58;100947.63;;;16.65;100.00
55761;BME280;41679;51.440;-2.012;2022-08-27T08:33:25;100950.28;;;16.72;100.00
55761;BME280;41679;51.440;-2.012;2022-08-27T08:35:51;100951.09;;;16.91;100.00
55761;BME280;41679;51.440;-2.012;2022-08-27T08:38:18;100945.19;;;17.05;100.00
55761;BME280;41679;51.440;-2.012;2022-08-27T08:40:46;100949.25;;;17.15;100.00
55761;BME280;41679;51.440;-2.012;2022-08-27T08:43:39;100957.31;;;16.98;100.00
55761;BME280;41679;51.440;-2.012;2022-08-27T08:46:30;100951.66;;;16.81;100.00
55761;BME280;41679;51.440;-2.012;2022-08-27T08:49:01;100953.56;;;16.80;100.00
55761;BME280;41679;51.440;-2.012;2022-08-27T08:51:35;100950.44;;;16.77;100.00
55761;BME280;41679;51.440;-2.012;2022-08-27T08:54:08;100948.75;;;16.76;100.00
55761;BME280;41679;51.440;-2.012;2022-08-27T08:56:53;100943.97;;;16.90;100.00
55761;BME280;41679;51.440;-2.012;2022-08-27T08:59:28;100938.75;;;17.00;100.00
55761;BME280;41679;51.440;-2.012;2022-08-27T09:01:56;100942.94;;;17.02;100.00
55761;BME280;41679;51.440;-2.012;2022-08-27T09:04:23;100946.72;;;17.01;100.00
55761;BME280;41679;51.440;-2.012;2022-08-27T09:06:57;100945.78;;;17.08;100.00
55761;BME280;41679;51.440;-2.012;2022-08-27T09:09:32;100944.84;;;17.14;100.00
55761;BME280;41679;51.440;-2.012;2022-08-27T09:12:10;100946.53;;;17.26;100.00
55761;BME280;41679;51.440;-2.012;2022-08-27T09:15:04;100939.03;;;17.34;100.00
55761;BME280;41679;51.440;-2.012;2022-08-27T09:17:30;100939.16;;;17.50;100.00
55761;BME280;41679;51.440;-2.012;2022-08-27T09:19:59;100936.75;;;17.54;100.00
55761;BME280;41679;51.440;-2.012;2022-08-27T09:25:34;100937.38;;;17.80;100.00
55761;BME280;41679;51.440;-2.012;2022-08-27T09:28:08;100945.25;;;18.00;100.00
55761;BME280;41679;51.440;-2.012;2022-08-27T09:31:01;100944.97;;;18.13;100.00
55761;BME280;41679;51.440;-2.012;2022-08-27T09:33:27;100936.69;;;18.25;100.00
55761;BME280;41679;51.440;-2.012;2022-08-27T09:36:01;100940.00;;;18.39;100.00
55761;BME280;41679;51.440;-2.012;2022-08-27T09:38:31;100937.91;;;18.57;100.00
55761;BME280;41679;51.440;-2.012;2022-08-27T09:41:01;100943.16;;;18.88;100.00
55761;BME280;41679;51.440;-2.012;2022-08-27T09:43:30;100945.75;;;18.94;100.00
55761;BME280;41679;51.440;-2.012;2022-08-27T09:46:20;100946.47;;;18.90;100.00
55761;BME280;41679;51.440;-2.012;2022-08-27T09:48:46;100940.09;;;19.01;100.00
55761;BME280;41679;51.440;-2.012;2022-08-27T09:51:15;100940.69;;;19.20;100.00
55761;BME280;41679;51.440;-2.012;2022-08-27T09:53:55;100952.28;;;19.22;100.00
55761;BME280;41679;51.440;-2.012;2022-08-27T09:56:34;100943.34;;;19.32;100.00
55761;BME280;41679;51.440;-2.012;2022-08-27T10:01:34;100945.88;;;19.50;100.00
55761;BME280;41679;51.440;-2.012;2022-08-27T10:04:09;100947.75;;;19.50;100.00
55761;BME280;41679;51.440;-2.012;2022-08-27T10:06:35;100946.50;;;19.57;100.00
55761;BME280;41679;51.440;-2.012;2022-08-27T10:09:10;100938.00;;;19.76;100.00
55761;BME280;41679;51.440;-2.012;2022-08-27T10:12:02;100951.47;;;19.94;100.00
55761;BME280;41679;51.440;-2.012;2022-08-27T10:14:36;100957.56;;;19.96;100.00
55761;BME280;41679;51.440;-2.012;2022-08-27T10:19:47;100957.38;;;20.25;100.00
55761;BME280;41679;51.440;-2.012;2022-08-27T10:22:20;100965.38;;;20.26;100.00
55761;BME280;41679;51.440;-2.012;2022-08-27T10:27:53;100957.69;;;20.50;100.00
55761;BME280;41679;51.440;-2.012;2022-08-27T10:30:31;100951.66;;;20.75;100.00
55761;BME280;41679;51.440;-2.012;2022-08-27T10:33:12;100952.66;;;20.91;100.00
55761;BME280;41679;51.440;-2.012;2022-08-27T10:36:00;100962.19;;;21.11;100.00
55761;BME280;41679;51.440;-2.012;2022-08-27T10:38:52;100958.25;;;21.34;100.00
55761;BME280;41679;51.440;-2.012;2022-08-27T10:41:44;100957.31;;;21.50;100.00
55761;BME280;41679;51.440;-2.012;2022-08-27T10:46:58;100966.56;;;21.71;100.00
55761;BME280;41679;51.440;-2.012;2022-08-27T10:49:51;100974.13;;;21.86;100.00
55761;BME280;41679;51.440;-2.012;2022-08-27T10:52:27;100976.09;;;21.96;100.00
55761;BME280;41679;51.440;-2.012;2022-08-27T10:55:13;100977.19;;;21.95;100.00
55761;BME280;41679;51.440;-2.012;2022-08-27T11:00:40;100971.06;;;21.82;100.00
55761;BME280;41679;51.440;-2.012;2022-08-27T11:03:14;100970.31;;;21.97;100.00
55761;BME280;41679;51.440;-2.012;2022-08-27T11:05:48;100959.09;;;22.14;100.00
55761;BME280;41679;51.440;-2.012;2022-08-27T11:10:47;100976.13;;;22.59;100.00
55761;BME280;41679;51.440;-2.012;2022-08-27T11:13:20;100970.66;;;22.69;100.00
55761;BME280;41679;51.440;-2.012;2022-08-27T11:15:52;100965.16;;;22.89;100.00
55761;BME280;41679;51.440;-2.012;2022-08-27T11:20:57;100972.63;;;22.94;100.00
55761;BME280;41679;51.440;-2.012;2022-08-27T11:23:46;100974.06;;;23.17;100.00
55761;BME280;41679;51.440;-2.012;2022-08-27T11:26:12;100969.09;;;23.19;100.00
55761;BME280;41679;51.440;-2.012;2022-08-27T11:28:43;100974.63;;;23.60;100.00
55761;BME280;41679;51.440;-2.012;2022-08-27T11:31:14;100975.19;;;23.52;100.00
55761;BME280;41679;51.440;-2.012;2022-08-27T11:34:44;100968.50;;;23.89;100.00
55761;BME280;41679;51.440;-2.012;2022-08-27T11:42:16;100978.13;;;24.22;100.00
55761;BME280;41679;51.440;-2.012;2022-08-27T11:44:46;100980.25;;;24.51;100.00
55761;BME280;41679;51.440;-2.012;2022-08-27T11:47:19;100978.00;;;24.48;100.00
55761;BME280;41679;51.440;-2.012;2022-08-27T11:50:16;100979.13;;;24.47;100.00
55761;BME280;41679;51.440;-2.012;2022-08-27T11:52:55;100973.75;;;23.95;100.00
55761;BME280;41679;51.440;-2.012;2022-08-27T11:55:26;100969.91;;;23.71;100.00
55761;BME280;41679;51.440;-2.012;2022-08-27T11:58:23;100975.19;;;23.47;100.00
55761;BME280;41679;51.440;-2.012;2022-08-27T12:00:50;100971.56;;;23.62;100.00
55761;BME280;41679;51.440;-2.012;2022-08-27T12:20:25;100970.22;;;24.55;100.00
55761;BME280;41679;51.440;-2.012;2022-08-27T12:25:57;100957.03;;;24.26;100.00
55761;BME280;41679;51.440;-2.012;2022-08-27T12:28:25;100966.16;;;24.27;100.00
55761;BME280;41679;51.440;-2.012;2022-08-27T12:30:52;100976.16;;;24.22;100.00
55761;BME280;41679;51.440;-2.012;2022-08-27T12:33:31;100973.13;;;24.14;100.00
55761;BME280;41679;51.440;-2.012;2022-08-27T12:36:05;100964.28;;;24.12;100.00
55761;BME280;41679;51.440;-2.012;2022-08-27T12:38:43;100965.38;;;24.11;100.00
55761;BME280;41679;51.440;-2.012;2022-08-27T12:41:23;100956.81;;;24.07;100.00
55761;BME280;41679;51.440;-2.012;2022-08-27T12:44:01;100954.59;;;24.14;100.00
55761;BME280;41679;51.440;-2.012;2022-08-27T12:46:27;100962.13;;;23.98;100.00
55761;BME280;41679;51.440;-2.012;2022-08-27T12:49:00;100952.63;;;24.20;100.00
55761;BME280;41679;51.440;-2.012;2022-08-27T12:51:34;100962.50;;;24.47;100.00
55761;BME280;41679;51.440;-2.012;2022-08-27T12:54:36;100956.97;;;24.47;100.00
55761;BME280;41679;51.440;-2.012;2022-08-27T12:57:11;100951.19;;;24.33;100.00
55761;BME280;41679;51.440;-2.012;2022-08-27T13:00:18;100953.94;;;24.33;100.00
55761;BME280;41679;51.440;-2.012;2022-08-27T13:05:25;100949.88;;;24.15;100.00
55761;BME280;41679;51.440;-2.012;2022-08-27T13:07:52;100946.34;;;23.89;100.00
55761;BME280;41679;51.440;-2.012;2022-08-27T13:10:31;100955.25;;;23.80;100.00
55761;BME280;41679;51.440;-2.012;2022-08-27T13:13:08;100935.84;;;23.65;100.00
55761;BME280;41679;51.440;-2.012;2022-08-27T13:15:35;100938.09;;;23.73;100.00
55761;BME280;41679;51.440;-2.012;2022-08-27T13:18:04;100933.84;;;24.01;100.00
55761;BME280;41679;51.440;-2.012;2022-08-27T13:20:35;100938.41;;;24.37;100.00
55761;BME280;41679;51.440;-2.012;2022-08-27T13:23:22;100935.31;;;24.54;100.00
55761;BME280;41679;51.440;-2.012;2022-08-27T13:26:04;100932.78;;;24.57;100.00
55761;BME280;41679;51.440;-2.012;2022-08-27T13:28:32;100924.84;;;24.85;100.00
55761;BME280;41679;51.440;-2.012;2022-08-27T13:30:58;100928.31;;;24.66;100.00
55761;BME280;41679;51.440;-2.012;2022-08-27T13:33:27;100922.13;;;24.80;100.00
55761;BME280;41679;51.440;-2.012;2022-08-27T13:35:54;100921.13;;;24.60;100.00
55761;BME280;41679;51.440;-2.012;2022-08-27T13:38:23;100925.66;;;24.46;100.00
55761;BME280;41679;51.440;-2.012;2022-08-27T13:43:45;100921.91;;;24.66;100.00
55761;BME280;41679;51.440;-2.012;2022-08-27T13:48:46;100918.25;;;24.76;100.00